Time;durP1;ratioP1;P1;durP2;ratioP2;P2;SDS_P1;SDS_P2;PMS_P1;PMS_P2;Temp;Humidity;BMP_temperature;BMP_pressure;BME280_temperature;BME280_humidity;BME280_pressure;Samples;Min_cycle;Max_cycle;Signal;HPM_P1;HPM_P2
2023/05/19 00:01:44;;;;;;;0.10;0.10;;;;;;;11.94;56.04;102860.09;5070171;28;20041;-79
2023/05/19 00:04:13;;;;;;;0.10;0.10;;;;;;;11.92;56.05;102856.53;5068475;28;20137;-79
2023/05/19 00:06:40;;;;;;;0.10;0.10;;;;;;;11.89;55.87;102850.34;5070320;28;20028;-79
2023/05/19 00:09:08;;;;;;;0.15;0.15;;;;;;;11.88;55.57;102852.09;5068402;28;20517;-79
2023/05/19 00:11:36;;;;;;;0.10;0.10;;;;;;;11.87;55.87;102857.41;5070061;28;20505;-80
2023/05/19 00:14:05;;;;;;;0.10;0.10;;;;;;;11.84;56.32;102855.63;5063845;28;20035;-79
2023/05/19 00:16:32;;;;;;;0.10;0.10;;;;;;;11.82;56.65;102858.28;5069789;28;20028;-79
2023/05/19 00:18:59;;;;;;;0.10;0.10;;;;;;;11.81;56.05;102863.53;5071017;28;20025;-79
2023/05/19 00:21:26;;;;;;;0.10;0.10;;;;;;;11.76;55.96;102859.97;5074448;28;20509;-79
2023/05/19 00:23:54;;;;;;;0.10;0.10;;;;;;;11.74;56.43;102853.75;5067584;28;20029;-80
2023/05/19 00:26:21;;;;;;;0.10;0.10;;;;;;;11.70;56.38;102851.97;5070961;28;20024;-80
2023/05/19 00:28:48;;;;;;;0.00;0.00;;;;;;;11.68;56.47;102848.44;5069476;28;20028;-80
2023/05/19 00:31:15;;;;;;;0.10;0.10;;;;;;;11.64;56.58;102856.34;5071568;28;20104;-80
2023/05/19 00:33:41;;;;;;;0.10;0.10;;;;;;;11.62;56.74;102852.78;5067068;28;20100;-78
2023/05/19 00:36:07;;;;;;;0.10;0.10;;;;;;;11.59;56.48;102859.81;5072196;28;20398;-78
2023/05/19 00:38:35;;;;;;;0.10;0.10;;;;;;;11.55;56.62;102853.63;5080452;28;20517;-78
2023/05/19 00:41:03;;;;;;;0.38;0.15;;;;;;;11.53;56.56;102859.81;5083710;28;20039;-78
2023/05/19 00:43:29;;;;;;;0.10;0.10;;;;;;;11.49;56.48;102859.78;5082091;28;20032;-78
2023/05/19 00:45:56;;;;;;;0.10;0.10;;;;;;;11.47;56.57;102868.59;5074056;28;20056;-78
2023/05/19 00:48:24;;;;;;;0.10;0.10;;;;;;;11.46;56.68;102864.16;5075665;28;20086;-78
2023/05/19 00:50:54;;;;;;;0.10;0.10;;;;;;;11.44;57.00;102863.25;5053466;28;20028;-79
2023/05/19 00:53:22;;;;;;;0.10;0.10;;;;;;;11.42;56.98;102859.72;5094119;28;20020;-80
2023/05/19 00:55:49;;;;;;;0.10;0.10;;;;;;;11.39;56.96;102862.31;5098275;28;20082;-79
2023/05/19 00:58:16;;;;;;;0.10;0.10;;;;;;;11.37;57.45;102851.69;5079566;28;20031;-81
2023/05/19 01:00:43;;;;;;;0.00;0.00;;;;;;;11.36;57.05;102854.34;5073727;28;20050;-81
2023/05/19 01:03:10;;;;;;;0.10;0.10;;;;;;;11.36;57.24;102851.69;5073425;28;20028;-79
2023/05/19 01:05:43;;;;;;;0.10;0.10;;;;;;;11.38;57.81;102853.47;5074422;28;20753;-79
2023/05/19 01:08:10;;;;;;;0.10;0.10;;;;;;;11.32;57.25;102848.13;5072332;28;20020;-80
2023/05/19 01:10:36;;;;;;;0.17;0.17;;;;;;;11.29;57.01;102851.63;5074872;28;20040;-79
2023/05/19 01:13:04;;;;;;;1.55;0.88;;;;;;;11.26;58.01;102848.06;5074476;28;20031;-79
2023/05/19 01:15:38;;;;;;;0.10;0.10;;;;;;;11.23;57.96;102848.94;5073788;28;20031;-79
2023/05/19 01:18:12;;;;;;;0.10;0.10;;;;;;;11.23;57.44;102848.03;5079799;28;20039;-78
2023/05/19 01:20:45;;;;;;;0.10;0.10;;;;;;;11.20;57.46;102845.34;5073671;28;20111;-79
2023/05/19 01:23:52;;;;;;;0.10;0.10;;;;;;;11.25;57.53;102851.59;5080170;28;20024;-79
2023/05/19 01:29:36;;;;;;;0.10;0.10;;;;;;;11.21;58.20;102839.16;5114503;27;20408;-81
2023/05/19 01:32:05;;;;;;;0.10;0.10;;;;;;;11.12;57.71;102840.84;5093528;28;20036;-81
2023/05/19 01:34:37;;;;;;;0.10;0.10;;;;;;;11.09;57.95;102834.63;5084567;28;20024;-80
2023/05/19 01:37:04;;;;;;;0.10;0.10;;;;;;;11.06;58.00;102840.78;5090609;28;20053;-81
2023/05/19 01:39:31;;;;;;;0.10;0.10;;;;;;;11.03;58.26;102830.16;5090033;28;20020;-81
2023/05/19 01:41:59;;;;;;;0.10;0.10;;;;;;;11.02;57.80;102833.69;5089700;28;20028;-80
2023/05/19 01:44:25;;;;;;;0.10;0.10;;;;;;;10.99;57.93;102830.97;5090313;28;20030;-79
2023/05/19 01:46:52;;;;;;;0.10;0.10;;;;;;;10.96;57.97;102826.53;5086464;28;20033;-80
2023/05/19 01:49:18;;;;;;;0.10;0.10;;;;;;;10.96;57.88;102836.28;5093716;28;20024;-81
2023/05/19 01:51:44;;;;;;;0.10;0.10;;;;;;;10.94;57.94;102836.25;5094224;28;20057;-79
2023/05/19 01:54:10;;;;;;;0.10;0.10;;;;;;;10.91;57.92;102825.59;5096569;28;20039;-80
2023/05/19 01:57:16;;;;;;;0.10;0.10;;;;;;;10.99;58.02;102829.25;5088696;28;20032;-80
2023/05/19 01:59:58;;;;;;;0.10;0.10;;;;;;;10.96;57.58;102834.50;5086857;28;20137;-81
2023/05/19 02:02:49;;;;;;;0.10;0.10;;;;;;;10.93;57.73;102830.91;5087349;28;20031;-80
2023/05/19 02:05:28;;;;;;;0.10;0.10;;;;;;;10.90;58.24;102829.13;5080448;28;20036;-81
2023/05/19 02:08:13;;;;;;;0.10;0.10;;;;;;;10.92;57.85;102827.38;5088613;28;20032;-80
2023/05/19 02:10:44;;;;;;;0.15;0.15;;;;;;;10.84;58.64;102823.75;5083442;28;20027;-81
2023/05/19 02:13:15;;;;;;;0.10;0.10;;;;;;;10.81;58.91;102832.56;5083582;28;20124;-80
2023/05/19 02:15:44;;;;;;;0.10;0.10;;;;;;;10.78;58.17;102821.94;5089240;28;20042;-80
2023/05/19 02:18:11;;;;;;;0.10;0.10;;;;;;;10.77;58.68;102820.16;5087186;28;20444;-80
2023/05/19 02:20:39;;;;;;;0.08;0.08;;;;;;;10.78;58.26;102818.38;5088273;28;20068;-81
2023/05/19 02:23:05;;;;;;;0.10;0.10;;;;;;;10.77;58.36;102819.28;5085975;28;20020;-81
2023/05/19 02:25:32;;;;;;;0.00;0.00;;;;;;;10.77;58.40;102819.28;5087182;28;20028;-81
2023/05/19 02:27:58;;;;;;;0.10;0.10;;;;;;;10.76;58.43;102813.06;5085926;28;20033;-80
2023/05/19 02:30:25;;;;;;;0.10;0.10;;;;;;;10.74;58.47;102816.59;5088851;28;20024;-81
2023/05/19 02:32:52;;;;;;;1.00;0.73;;;;;;;10.73;58.68;102818.34;5083396;28;20040;-81
2023/05/19 02:35:19;;;;;;;0.10;0.10;;;;;;;10.72;59.29;102813.03;5087341;28;20040;-81
2023/05/19 02:37:45;;;;;;;0.10;0.10;;;;;;;10.70;58.72;102814.78;5087689;28;20043;-80
2023/05/19 02:40:11;;;;;;;0.10;0.10;;;;;;;10.68;58.25;102812.13;5071681;28;20035;-78
2023/05/19 02:42:37;;;;;;;0.10;0.10;;;;;;;10.66;58.88;102812.06;5070064;28;20033;-80
2023/05/19 02:45:04;;;;;;;0.10;0.10;;;;;;;10.66;58.88;102806.78;5076076;28;20029;-81
2023/05/19 02:47:30;;;;;;;0.13;0.13;;;;;;;10.64;59.16;102805.88;5067838;28;20032;-81
2023/05/19 02:49:56;;;;;;;0.10;0.10;;;;;;;10.63;59.25;102801.44;5066479;28;20033;-81
2023/05/19 02:52:22;;;;;;;0.38;0.38;;;;;;;10.62;58.79;102804.97;5074156;28;20035;-81
2023/05/19 02:54:48;;;;;;;0.10;0.10;;;;;;;10.61;59.03;102808.50;5076460;28;20040;-81
2023/05/19 02:57:14;;;;;;;0.10;0.10;;;;;;;10.59;58.95;102799.66;5078287;28;20032;-81
2023/05/19 02:59:41;;;;;;;0.10;0.10;;;;;;;10.57;59.43;102801.38;5077690;28;20035;-79
2023/05/19 03:02:07;;;;;;;0.10;0.10;;;;;;;10.56;59.36;102796.06;5071154;28;20024;-80
2023/05/19 03:04:40;;;;;;;0.00;0.00;;;;;;;10.55;58.59;102802.25;5074522;28;20032;-80
2023/05/19 03:07:08;;;;;;;0.10;0.10;;;;;;;10.52;59.23;102801.31;5070764;28;20107;-80
2023/05/19 03:09:36;;;;;;;0.10;0.10;;;;;;;10.50;59.09;102797.78;5076717;28;20498;-79
2023/05/19 03:12:03;;;;;;;0.10;0.10;;;;;;;10.50;59.50;102794.22;5070744;28;20024;-80
2023/05/19 03:14:31;;;;;;;0.10;0.10;;;;;;;10.48;59.49;102794.22;5076943;28;20137;-79
2023/05/19 03:16:58;;;;;;;0.10;0.10;;;;;;;10.47;59.54;102792.44;5075494;28;20025;-79
2023/05/19 03:19:24;;;;;;;0.10;0.10;;;;;;;10.48;58.98;102793.31;5076461;28;20442;-80
2023/05/19 03:21:51;;;;;;;0.10;0.10;;;;;;;10.47;59.66;102791.56;5078489;28;20055;-80
2023/05/19 03:24:17;;;;;;;0.10;0.10;;;;;;;10.45;59.12;102788.00;5071681;28;20023;-80
2023/05/19 03:26:43;;;;;;;0.20;0.20;;;;;;;10.44;59.72;102783.56;5079345;28;20035;-80
2023/05/19 03:29:10;;;;;;;0.10;0.10;;;;;;;10.43;59.60;102784.41;5080536;28;20078;-80
2023/05/19 03:31:36;;;;;;;0.10;0.10;;;;;;;10.43;59.60;102787.06;5072331;28;20490;-80
2023/05/19 03:34:02;;;;;;;0.10;0.10;;;;;;;10.41;59.73;102786.19;5066211;28;20047;-81
2023/05/19 03:36:31;;;;;;;0.00;0.00;;;;;;;10.40;59.74;102779.09;5073602;28;20087;-80
2023/05/19 03:38:58;;;;;;;0.10;0.10;;;;;;;10.40;60.15;102779.09;5075331;28;20043;-79
2023/05/19 03:41:24;;;;;;;0.10;0.10;;;;;;;10.39;59.99;102786.13;5073509;28;20029;-79
2023/05/19 03:43:50;;;;;;;0.10;0.10;;;;;;;10.38;59.71;102775.53;5073431;28;20059;-80
2023/05/19 03:46:16;;;;;;;0.10;0.10;;;;;;;10.36;59.47;102773.75;5073056;28;20076;-80
2023/05/19 03:48:42;;;;;;;0.10;0.10;;;;;;;10.35;59.86;102774.59;5074811;28;20025;-80
2023/05/19 03:51:09;;;;;;;0.10;0.10;;;;;;;10.35;59.74;102771.97;5065594;28;20040;-78
2023/05/19 03:53:35;;;;;;;0.10;0.10;;;;;;;10.33;59.41;102768.38;5068712;28;20063;-77
2023/05/19 03:56:01;;;;;;;0.10;0.10;;;;;;;10.35;59.47;102782.56;5075471;28;20033;-80
2023/05/19 03:58:29;;;;;;;0.70;0.70;;;;;;;10.36;59.61;102773.75;5073474;28;20024;-78
2023/05/19 04:00:55;;;;;;;0.20;0.20;;;;;;;10.36;59.93;102781.69;5072734;28;20024;-79
2023/05/19 04:03:21;;;;;;;0.10;0.10;;;;;;;10.36;60.03;102786.13;5075384;28;20024;-79
2023/05/19 04:05:47;;;;;;;0.10;0.10;;;;;;;10.36;60.03;102786.13;5076032;28;20040;-80
2023/05/19 04:08:13;;;;;;;0.10;0.10;;;;;;;10.38;59.66;102791.44;5074610;28;20036;-80
2023/05/19 04:10:39;;;;;;;0.10;0.10;;;;;;;10.36;59.91;102789.66;5072774;28;20047;-80
2023/05/19 04:13:05;;;;;;;0.10;0.10;;;;;;;10.36;59.94;102792.28;5074402;28;20049;-79
2023/05/19 04:15:31;;;;;;;0.10;0.10;;;;;;;10.37;60.04;102790.56;5074390;28;20031;-80
2023/05/19 04:17:57;;;;;;;0.10;0.10;;;;;;;10.39;59.57;102793.22;5071760;28;20045;-80
2023/05/19 04:20:23;;;;;;;0.10;0.10;;;;;;;10.41;59.78;102796.78;5072460;28;20033;-80
2023/05/19 04:22:49;;;;;;;0.10;0.10;;;;;;;10.43;60.19;102795.03;5076640;28;20461;-79
2023/05/19 04:25:15;;;;;;;0.10;0.10;;;;;;;10.47;60.27;102797.72;5076801;28;20091;-80
2023/05/19 04:27:41;;;;;;;0.10;0.10;;;;;;;10.48;60.25;102799.53;5077056;28;20041;-80
2023/05/19 04:30:08;;;;;;;0.10;0.10;;;;;;;10.52;59.85;102795.16;5074465;28;20102;-80
2023/05/19 04:32:36;;;;;;;0.10;0.10;;;;;;;10.54;59.92;102803.09;5066243;28;20112;-80
2023/05/19 04:35:02;;;;;;;0.10;0.10;;;;;;;10.57;60.16;102804.03;5077088;28;20035;-80
2023/05/19 04:37:28;;;;;;;0.10;0.10;;;;;;;10.60;59.70;102797.88;5076783;28;20491;-79
2023/05/19 04:39:54;;;;;;;0.00;0.00;;;;;;;10.63;60.23;102793.50;5077155;28;20036;-80
2023/05/19 04:42:20;;;;;;;0.10;0.10;;;;;;;10.67;59.60;102799.72;5071008;28;20035;-79
2023/05/19 04:44:48;;;;;;;0.10;0.10;;;;;;;10.71;59.65;102798.00;5083277;28;20060;-79
2023/05/19 04:47:14;;;;;;;0.10;0.10;;;;;;;10.76;59.96;102804.25;5075416;28;20033;-80
2023/05/19 04:49:41;;;;;;;0.10;0.10;;;;;;;10.81;60.54;102799.88;5072676;28;20066;-79
2023/05/19 04:52:10;;;;;;;0.10;0.10;;;;;;;10.85;60.93;102804.31;5074345;28;20024;-79
2023/05/19 04:54:37;;;;;;;0.10;0.10;;;;;;;10.92;60.37;102806.16;5070913;28;20029;-80
2023/05/19 04:57:04;;;;;;;0.10;0.10;;;;;;;10.96;60.27;102807.09;5074066;28;20407;-80
2023/05/19 04:59:32;;;;;;;0.10;0.10;;;;;;;11.00;60.02;102804.50;5071974;28;20077;-80
2023/05/19 05:01:58;;;;;;;0.00;0.00;;;;;;;11.06;59.97;102808.94;5065769;28;20036;-80
2023/05/19 05:04:24;;;;;;;0.10;0.10;;;;;;;11.11;60.55;102812.53;5071467;28;20047;-80
2023/05/19 05:06:50;;;;;;;0.10;0.10;;;;;;;11.16;59.69;102808.19;5070256;28;20109;-79
2023/05/19 05:09:18;;;;;;;0.10;0.10;;;;;;;11.20;60.01;102808.19;5070354;28;20039;-79
2023/05/19 05:11:45;;;;;;;0.10;0.10;;;;;;;11.24;60.70;102813.56;5083530;28;20020;-80
2023/05/19 05:14:11;;;;;;;0.10;0.10;;;;;;;11.28;60.25;102815.34;5077294;28;20056;-80
2023/05/19 05:16:37;;;;;;;0.10;0.10;;;;;;;11.33;60.54;102815.41;5074201;28;20091;-78
2023/05/19 05:19:04;;;;;;;0.10;0.10;;;;;;;11.38;60.56;102818.97;5075590;28;20023;-79
2023/05/19 05:21:30;;;;;;;0.10;0.10;;;;;;;11.39;60.19;102810.16;5058726;28;20032;-78
2023/05/19 05:23:57;;;;;;;0.10;0.10;;;;;;;11.43;60.36;102819.03;5062367;28;20024;-78
2023/05/19 05:26:29;;;;;;;0.10;0.10;;;;;;;11.47;60.04;102812.84;5068407;28;20427;-78
2023/05/19 05:28:55;;;;;;;0.10;0.10;;;;;;;11.47;59.94;102819.03;5083331;28;20028;-78
2023/05/19 05:31:21;;;;;;;0.80;0.80;;;;;;;11.49;59.83;102816.41;5078327;28;20040;-79
2023/05/19 05:33:48;;;;;;;0.08;0.08;;;;;;;11.52;60.69;102819.09;5080999;28;20033;-78
2023/05/19 05:36:14;;;;;;;0.10;0.10;;;;;;;11.56;60.11;102820.88;5063231;28;20486;-79
2023/05/19 05:38:40;;;;;;;0.08;0.08;;;;;;;11.58;60.35;102824.44;5061254;28;20028;-78
2023/05/19 05:41:06;;;;;;;0.10;0.10;;;;;;;11.60;60.17;102820.03;5059076;28;20040;-78
2023/05/19 05:43:32;;;;;;;0.10;0.10;;;;;;;11.64;59.91;102810.34;5066671;28;20017;-78
2023/05/19 05:45:58;;;;;;;0.10;0.10;;;;;;;11.68;60.46;102814.78;5075091;28;20121;-79
2023/05/19 05:48:25;;;;;;;0.00;0.00;;;;;;;11.73;60.16;102813.03;5065514;28;20036;-78
2023/05/19 05:50:53;;;;;;;0.10;0.10;;;;;;;11.78;59.68;102815.75;5068219;28;20036;-79
2023/05/19 05:53:20;;;;;;;0.20;0.20;;;;;;;11.81;60.15;102815.75;5066909;28;20024;-78
2023/05/19 05:55:47;;;;;;;0.30;0.30;;;;;;;11.87;59.91;102815.78;5058894;28;20108;-79
2023/05/19 05:58:14;;;;;;;0.10;0.10;;;;;;;11.91;60.10;102812.28;5069053;28;20035;-79
2023/05/19 06:00:42;;;;;;;0.10;0.10;;;;;;;11.96;60.40;102815.88;5067646;28;20028;-79
2023/05/19 06:03:09;;;;;;;0.00;0.00;;;;;;;12.02;60.04;102816.81;5077437;28;20039;-80
2023/05/19 06:05:36;;;;;;;0.03;0.03;;;;;;;12.08;59.93;102814.19;5080731;28;20119;-79
2023/05/19 06:08:02;;;;;;;0.05;0.05;;;;;;;12.12;60.79;102810.66;5068322;28;20036;-79
2023/05/19 06:10:29;;;;;;;0.10;0.10;;;;;;;12.18;60.64;102807.16;5067765;28;20033;-80
2023/05/19 06:12:55;;;;;;;0.10;0.10;;;;;;;12.22;59.89;102807.16;5074675;28;20031;-79
2023/05/19 06:15:21;;;;;;;0.10;0.10;;;;;;;12.28;60.27;102803.63;5071902;28;20028;-80
2023/05/19 06:17:48;;;;;;;0.10;0.10;;;;;;;12.33;59.48;102799.22;5068058;28;20436;-80
2023/05/19 06:20:15;;;;;;;0.10;0.10;;;;;;;12.39;60.49;102796.59;5071521;28;20035;-78
2023/05/19 06:22:41;;;;;;;0.10;0.10;;;;;;;12.46;59.58;102805.47;5068148;28;20028;-79
2023/05/19 06:25:07;;;;;;;0.00;0.00;;;;;;;12.52;60.01;102809.94;5079491;28;20024;-77
2023/05/19 06:27:34;;;;;;;0.10;0.10;;;;;;;12.57;59.92;102803.75;5082875;28;20025;-78
2023/05/19 06:30:00;;;;;;;0.08;0.08;;;;;;;12.63;59.96;102808.19;5082582;28;20050;-78
2023/05/19 06:32:28;;;;;;;0.10;0.10;;;;;;;12.69;59.96;102810.00;5065189;28;20032;-80
2023/05/19 06:34:54;;;;;;;0.10;0.10;;;;;;;12.78;60.33;102807.34;5073018;28;20025;-79
2023/05/19 06:37:21;;;;;;;0.00;0.00;;;;;;;12.86;60.44;102810.91;5078602;28;20023;-79
2023/05/19 06:39:51;;;;;;;0.08;0.08;;;;;;;12.95;60.00;102810.91;5077388;28;20108;-80
2023/05/19 06:42:21;;;;;;;0.10;0.10;;;;;;;13.05;60.05;102802.97;5078724;28;20024;-78
2023/05/19 06:44:48;;;;;;;0.00;0.00;;;;;;;13.15;59.63;102803.88;5085705;28;20028;-79
2023/05/19 06:47:15;;;;;;;0.10;0.10;;;;;;;13.23;59.72;102804.75;5084268;28;20029;-78
2023/05/19 06:49:41;;;;;;;0.10;0.10;;;;;;;13.33;60.38;102808.28;5077200;28;20033;-80
2023/05/19 06:52:07;;;;;;;0.10;0.10;;;;;;;13.41;60.85;102806.56;5072090;28;20025;-80
2023/05/19 06:54:33;;;;;;;0.00;0.00;;;;;;;13.51;59.74;102811.00;5073764;28;20028;-80
2023/05/19 06:57:00;;;;;;;0.10;0.10;;;;;;;13.61;59.74;102806.53;5077909;28;20044;-80
2023/05/19 06:59:26;;;;;;;0.10;0.10;;;;;;;13.71;59.44;102804.75;5078672;28;20062;-80
2023/05/19 07:01:52;;;;;;;0.00;0.00;;;;;;;13.83;59.50;102807.41;5079016;28;20059;-80
2023/05/19 07:04:18;;;;;;;0.10;0.10;;;;;;;13.96;59.14;102810.03;5077619;28;20043;-80
2023/05/19 07:06:44;;;;;;;0.10;0.10;;;;;;;14.06;58.67;102809.09;5076969;28;20032;-80
2023/05/19 07:09:10;;;;;;;0.00;0.00;;;;;;;14.15;58.60;102803.72;5077495;28;20028;-80
2023/05/19 07:11:36;;;;;;;0.10;0.10;;;;;;;14.28;58.47;102811.69;5073163;28;20033;-80
2023/05/19 07:14:02;;;;;;;0.03;0.03;;;;;;;14.38;58.59;102802.75;5077837;28;20066;-80
2023/05/19 07:16:28;;;;;;;0.00;0.00;;;;;;;14.47;58.48;102810.72;5078549;28;20077;-80
2023/05/19 07:18:54;;;;;;;0.00;0.00;;;;;;;14.59;58.04;102808.88;5069859;28;20105;-81
2023/05/19 07:21:20;;;;;;;0.10;0.10;;;;;;;14.67;58.02;102812.44;5077315;28;20392;-80
2023/05/19 07:23:46;;;;;;;0.10;0.10;;;;;;;14.76;57.80;102809.72;5077799;28;20446;-80
2023/05/19 07:26:12;;;;;;;0.10;0.10;;;;;;;14.85;57.76;102807.00;5078897;28;20028;-80
2023/05/19 07:28:38;;;;;;;0.00;0.00;;;;;;;14.94;57.47;102806.06;5078230;28;20064;-80
2023/05/19 07:31:05;;;;;;;0.00;0.00;;;;;;;15.01;57.28;102796.19;5076529;28;20029;-80
2023/05/19 07:33:31;;;;;;;0.00;0.00;;;;;;;15.08;57.08;102803.28;5079501;28;20032;-78
2023/05/19 07:35:57;;;;;;;0.10;0.10;;;;;;;15.14;56.92;102802.31;5077540;28;20085;-78
2023/05/19 07:38:23;;;;;;;0.28;0.22;;;;;;;15.23;57.08;102801.38;5076957;28;20056;-78
2023/05/19 07:40:49;;;;;;;0.10;0.10;;;;;;;15.30;56.95;102795.97;5073097;28;20029;-79
2023/05/19 07:43:15;;;;;;;0.10;0.10;;;;;;;15.40;57.06;102804.78;5076353;28;20517;-79
2023/05/19 07:45:41;;;;;;;0.20;0.20;;;;;;;15.48;56.89;102786.91;5075959;28;20111;-78
2023/05/19 07:48:07;;;;;;;0.00;0.00;;;;;;;15.61;56.90;102792.13;5072504;28;20029;-80
2023/05/19 07:50:33;;;;;;;0.10;0.10;;;;;;;15.69;56.52;102785.81;5075200;28;20050;-79
2023/05/19 07:53:00;;;;;;;0.10;0.10;;;;;;;15.77;56.25;102787.50;5074860;28;20047;-78
2023/05/19 07:55:26;;;;;;;0.20;0.20;;;;;;;15.84;56.19;102783.91;5075476;28;20040;-79
2023/05/19 07:57:52;;;;;;;1.90;1.55;;;;;;;15.92;55.74;102786.50;5076304;28;20479;-78
2023/05/19 08:00:18;;;;;;;0.00;0.00;;;;;;;15.99;55.80;102780.19;5076875;28;20063;-80
2023/05/19 08:02:44;;;;;;;0.10;0.10;;;;;;;16.06;55.66;102773.84;5072115;28;20028;-80
2023/05/19 08:05:10;;;;;;;0.00;0.00;;;;;;;16.12;55.75;102773.75;5076329;28;20101;-80
2023/05/19 08:07:36;;;;;;;0.10;0.10;;;;;;;16.20;55.47;102775.47;5075727;28;20021;-80
2023/05/19 08:10:03;;;;;;;0.10;0.10;;;;;;;16.29;55.20;102764.66;5073552;28;20033;-80
2023/05/19 08:12:29;;;;;;;0.10;0.10;;;;;;;16.37;54.72;102765.41;5075379;28;20031;-80
2023/05/19 08:14:55;;;;;;;0.00;0.00;;;;;;;16.48;54.79;102770.63;5074285;28;20025;-79
2023/05/19 08:17:22;;;;;;;0.20;0.20;;;;;;;16.58;54.53;102766.91;5075638;28;20058;-80
2023/05/19 08:19:48;;;;;;;0.10;0.10;;;;;;;16.63;54.42;102759.69;5079580;28;20033;-79
2023/05/19 08:22:14;;;;;;;0.05;0.05;;;;;;;16.71;54.38;102756.91;5086970;28;20029;-78
2023/05/19 08:24:41;;;;;;;0.10;0.10;;;;;;;16.80;54.05;102762.13;5086767;28;20013;-81
2023/05/19 08:27:08;;;;;;;0.28;0.28;;;;;;;16.85;53.66;102754.03;5078616;28;20047;-80
2023/05/19 08:29:34;;;;;;;0.10;0.10;;;;;;;16.93;53.34;102761.97;5072656;28;20043;-80
2023/05/19 08:32:01;;;;;;;0.00;0.00;;;;;;;17.01;53.27;102754.69;5068436;28;20033;-81
2023/05/19 08:34:27;;;;;;;0.00;0.00;;;;;;;17.08;52.69;102756.34;5078828;28;20017;-80
2023/05/19 08:36:56;;;;;;;0.20;0.20;;;;;;;17.16;52.88;102752.66;5075374;28;20063;-80
2023/05/19 08:39:25;;;;;;;0.20;0.20;;;;;;;17.23;52.40;102744.47;5069990;28;20036;-80
2023/05/19 08:41:52;;;;;;;0.10;0.10;;;;;;;17.33;52.25;102738.97;5076289;28;20040;-80
2023/05/19 08:44:19;;;;;;;0.03;0.03;;;;;;;17.43;51.93;102730.75;5076679;28;20107;-80
2023/05/19 08:46:46;;;;;;;0.50;0.50;;;;;;;17.55;51.96;102734.97;5073527;28;20032;-80
2023/05/19 08:49:17;;;;;;;0.10;0.10;;;;;;;17.64;51.62;102739.28;5076195;28;20028;-81
2023/05/19 08:54:24;;;;;;;0.03;0.03;;;;;;;17.81;51.00;102736.28;5147132;27;20395;-80
2023/05/19 08:56:50;;;;;;;0.10;0.10;;;;;;;17.86;50.74;102729.00;5126803;27;20083;-80
2023/05/19 08:59:18;;;;;;;0.03;0.03;;;;;;;17.94;50.78;102731.56;5127310;28;20029;-80
2023/05/19 09:01:45;;;;;;;0.10;0.10;;;;;;;18.02;50.48;102734.06;5127074;28;20486;-80
2023/05/19 09:04:11;;;;;;;0.03;0.03;;;;;;;18.08;50.26;102737.53;5128399;28;20016;-81
2023/05/19 09:06:43;;;;;;;0.00;0.00;;;;;;;18.15;49.10;102729.34;5122081;28;20031;-81
2023/05/19 09:09:09;;;;;;;0.10;0.10;;;;;;;18.23;49.81;102735.41;5119929;28;20027;-81
2023/05/19 09:11:36;;;;;;;0.20;0.20;;;;;;;18.32;49.18;102740.59;5129160;28;20062;-79
2023/05/19 09:14:04;;;;;;;0.10;0.10;;;;;;;18.40;48.83;102735.91;5127388;28;20028;-80
2023/05/19 09:16:33;;;;;;;0.10;0.10;;;;;;;18.49;48.66;102728.56;5125159;28;20057;-82
2023/05/19 09:18:59;;;;;;;0.10;0.10;;;;;;;18.58;48.63;102733.75;5127842;28;20409;-80
2023/05/19 09:21:29;;;;;;;0.08;0.08;;;;;;;18.69;48.32;102733.47;5125148;28;20081;-80
2023/05/19 09:23:57;;;;;;;0.10;0.10;;;;;;;18.81;48.35;102729.63;5127194;27;20015;-80
2023/05/19 09:26:35;;;;;;;0.10;0.10;;;;;;;18.90;47.66;102721.31;5127231;27;20028;-79
2023/05/19 09:29:01;;;;;;;0.10;0.10;;;;;;;19.02;47.56;102717.50;5127230;28;20039;-79
2023/05/19 09:31:32;;;;;;;0.10;0.10;;;;;;;19.11;47.44;102714.53;5122691;28;20019;-81
2023/05/19 09:34:00;;;;;;;0.10;0.10;;;;;;;19.18;46.89;102712.59;5136574;28;20031;-80
2023/05/19 09:36:28;;;;;;;0.20;0.20;;;;;;;19.28;46.58;102713.22;5126580;27;20015;-81
2023/05/19 09:38:55;;;;;;;0.00;0.00;;;;;;;19.37;46.48;102708.47;5120364;28;20058;-79
2023/05/19 09:41:22;;;;;;;0.10;0.10;;;;;;;19.51;46.10;102707.22;5124183;28;20032;-79
2023/05/19 09:43:55;;;;;;;0.10;0.10;;;;;;;19.67;46.02;102708.53;5135850;27;20047;-80
2023/05/19 09:46:28;;;;;;;0.10;0.10;;;;;;;19.79;45.42;102706.41;5134557;27;20034;-81
2023/05/19 09:48:58;;;;;;;0.10;0.10;;;;;;;19.90;45.23;102712.41;5130085;27;20076;-80
2023/05/19 09:51:24;;;;;;;0.10;0.10;;;;;;;19.99;45.36;102706.75;5121706;28;20031;-79
2023/05/19 09:53:52;;;;;;;0.20;0.20;;;;;;;20.10;44.77;102710.91;5127899;28;20023;-81
2023/05/19 09:56:22;;;;;;;0.10;0.10;;;;;;;20.20;44.64;102710.59;5142929;27;20028;-81
2023/05/19 09:58:48;;;;;;;0.10;0.10;;;;;;;20.30;43.82;102707.59;5130943;28;20045;-81
2023/05/19 10:01:15;;;;;;;0.10;0.10;;;;;;;20.40;43.42;102713.59;5131535;28;20105;-81
2023/05/19 10:03:43;;;;;;;0.30;0.30;;;;;;;20.46;43.37;102700.81;5128247;28;20036;-80
2023/05/19 10:06:10;;;;;;;0.10;0.10;;;;;;;20.53;43.42;102702.38;5109852;28;20138;-80
2023/05/19 10:08:38;;;;;;;0.10;0.10;;;;;;;20.60;43.34;102696.78;5117240;28;20039;-79
2023/05/19 10:11:05;;;;;;;0.10;0.10;;;;;;;20.62;43.22;102695.81;5112219;28;20058;-80
2023/05/19 10:13:33;;;;;;;0.03;0.03;;;;;;;20.60;42.88;102697.69;5112188;28;20020;-80
2023/05/19 10:16:00;;;;;;;0.00;0.00;;;;;;;20.63;43.39;102694.88;5110103;28;20042;-80
2023/05/19 10:18:28;;;;;;;0.20;0.20;;;;;;;20.72;43.22;102691.03;5115536;28;20085;-80
2023/05/19 10:20:56;;;;;;;0.20;0.20;;;;;;;20.79;42.80;102699.78;5112780;28;20049;-80
2023/05/19 10:23:22;;;;;;;0.10;0.10;;;;;;;20.83;42.70;102693.38;5113504;28;20101;-80
2023/05/19 10:25:52;;;;;;;0.20;0.10;;;;;;;20.95;42.61;102687.56;5119428;28;20042;-80
2023/05/19 10:28:22;;;;;;;0.10;0.10;;;;;;;21.08;42.28;102681.75;5111321;28;20035;-80
2023/05/19 10:30:52;;;;;;;0.10;0.10;;;;;;;21.10;42.36;102685.28;5108662;28;20024;-80
2023/05/19 10:33:21;;;;;;;0.00;0.00;;;;;;;21.06;42.57;102683.59;5106859;28;20051;-80
2023/05/19 10:39:06;;;;;;;0.10;0.10;;;;;;;21.20;41.90;102680.41;5120670;27;1202460;-79
2023/05/19 10:41:52;;;;;;;;;;;;;;;21.11;41.01;102673.53;5114783;28;20035;-80
2023/05/19 10:44:33;;;;;;;0.10;0.10;;;;;;;20.99;41.17;102673.03;5114543;28;19908;-79
2023/05/19 10:46:59;;;;;;;0.10;0.10;;;;;;;21.03;41.49;102675.63;5113308;28;20024;-81
2023/05/19 10:49:26;;;;;;;2.92;2.35;;;;;;;21.15;40.88;102672.50;5106636;28;20046;-81
2023/05/19 10:51:55;;;;;;;0.30;0.30;;;;;;;21.26;40.51;102664.91;5100368;28;20040;-80
2023/05/19 10:54:45;;;;;;;0.10;0.10;;;;;;;21.43;40.46;102671.50;5107840;28;20035;-81
2023/05/19 10:57:26;;;;;;;0.10;0.10;;;;;;;21.36;40.04;102675.34;5111261;28;20036;-81
2023/05/19 10:59:52;;;;;;;0.10;0.10;;;;;;;21.29;40.17;102670.19;5113395;28;20020;-82
2023/05/19 11:02:39;;;;;;;0.10;0.10;;;;;;;21.47;39.99;102665.03;5111058;28;20041;-81
2023/05/19 11:05:27;;;;;;;0.10;0.10;;;;;;;21.58;38.99;102659.28;5114416;28;20479;-81
2023/05/19 11:08:05;;;;;;;0.10;0.10;;;;;;;21.55;35.94;102664.78;5111473;28;20027;-81
2023/05/19 11:10:31;;;;;;;1.27;1.17;;;;;;;21.64;38.24;102659.94;5113951;28;20024;-81
2023/05/19 11:12:58;;;;;;;0.05;0.05;;;;;;;21.70;37.70;102652.56;5112745;28;20034;-80
2023/05/19 11:15:27;;;;;;;0.10;0.10;;;;;;;21.79;37.96;102663.00;5114010;28;20105;-81
2023/05/19 11:17:53;;;;;;;0.00;0.00;;;;;;;21.85;37.88;102651.97;5107471;28;20038;-79
2023/05/19 11:23:06;;;;;;;0.10;0.10;;;;;;;22.19;37.39;102661.41;5098502;28;20768;-81
2023/05/19 11:25:53;;;;;;;0.10;0.10;;;;;;;22.28;36.83;102666.44;5080530;28;20040;-81
2023/05/19 11:28:24;;;;;;;0.10;0.10;;;;;;;22.28;36.66;102660.16;5068802;28;20028;-81
2023/05/19 11:30:52;;;;;;;0.50;0.50;;;;;;;22.43;37.20;102658.69;5067727;28;20026;-82
2023/05/19 11:33:20;;;;;;;0.32;0.32;;;;;;;22.56;36.75;102659.94;5065207;28;20041;-81
2023/05/19 11:35:49;;;;;;;0.10;0.10;;;;;;;22.66;36.66;102660.44;5081138;28;20029;-82
2023/05/19 11:38:18;;;;;;;0.10;0.10;;;;;;;22.74;36.22;102646.59;5074506;28;20150;-81
2023/05/19 11:40:44;;;;;;;0.10;0.10;;;;;;;22.77;35.89;102647.34;5070375;28;20444;-82